Otis, CO (80743)

1:13 PM MDT on July 26, 2014 (GMT -0600)
Northern Washington County (KCOAKRON2) Elev 4453 ft | 40.31 °N, 103.11 °W | Change Station

Current weather conditions updated 6 minutes ago

Clear
Clear
90.5 °F
Feels Like 88 °F
N
9.4
Wind Variable Wind from NE

Today is forecast to be Cooler than yesterday.

Today
High -- | Low -- °F
--% Chance of Precip.
Yesterday
High -- | Low -- °F
Precip. -- in
5:44 AM 8:11 PM
Waning Crescent, 0% visible
Pressure 29.93 in
Visibility 10.0 miles
Clouds Clear
Heat Index 88 °F
Dew Point 51 °F
Humidity 26%
Rainfall 0.00 in
Snow Depth Not available.
UV 12 out of 12
Pollen 7.20 out of 12
Air Quality Not available.
Flu Activity Not available.
METAR KAKO 261853Z AUTO 35012G19KT 10SM CLR 31/08 A3014 RMK AO2 SLP134 T03110078

More Conditions Fewer Conditions

Pressure 29.93 in
Visibility 10.0 miles
Clouds Clear
Heat Index 88 °F
Dew Point 51 °F
Humidity 26%
Rainfall 0.00 in
Snow Depth Not available.
UV 12 out of 12
Pollen 7.20 out of 12
Air Quality Not available.
Flu Activity Not available.
METAR KAKO 261853Z AUTO 35012G19KT 10SM CLR 31/08 A3014 RMK AO2 SLP134 T03110078

More Conditions Fewer Conditions

10-Day Weather Forecast

Almanac

Astronomy

Jul. 26, 2014 Rise Set
Actual Time 5:44 AM MDT 8:11 PM MDT
Civil Twilight 5:13 AM MDT 8:42 PM MDT
Nautical Twilight 4:34 AM MDT 9:21 PM MDT
Astronomical Twilight 3:51 AM MDT 10:03 PM MDT
Moon 5:39 AM MDT 7:48 PM MDT
Length of Visible Light 15h 29m
Length of Day
14h 27m
Tomorrow will be 1m 49s shorter.
Waning Crescent, 0% of the Moon is Illuminated
Today
Waning Crescent
Jul 26
New
Aug 3
First Quarter
Aug 10
Full
Aug 17
Last Quarter

Today's Extremes

State Highs State Lows

Community

WunderPhotos

Upload Photos

1,737,672 photos uploaded!

Nearby

Snow Depth

Station Depth Elevation
Wild Basin 0 in 9560 ft
Lake Irene 1 in 10700 ft
Jackwhacker Gulch 0 in 10960 ft
Grizzly Peak 4 in 11100 ft
Rawah 19 in 9020 ft

Earthquake Activity

City Distance Mag. Time & Date
No recent earthquake activity has been reported nearby.
Minimum magnitude displayed is 2.5.

Coastal Water Temperatures

Place Temperature
No Stations Reporting

Nearby Weather Stations

Station Location Temp. Heat Index Dew Point Humidity Wind Precip. Elev Updated Type
Northern Washington County, Akron, CO 90.5 °F 88 °F 51 °F 26% NE  at  9.4 mph - / hr 4453 ft 1:06 PM MDT Normal
Yuma, CO 89.4 °F 87 °F 52 °F 28% WNW  at  7.0 mph 0.00 in / hr 4134 ft 1:13 PM MDT Normal

Show More Stations Show Fewer Stations